Portada
METAR-TAF:

METAR-TAF

Aeroports :

Catacamas, Hondures

latitud: 14-54N, longitud: 085-56W, altitud: 442 m

Observació

L'informe es va fer fa 47 minuts, a les 16:00 UTC
Vent calma
Temperatura 28°C
Humitat 74%
Pressió 1015 hPa
Visibilitat 10 km o més
Núvols disperses a una alçada de 2600 ft, Cumulus congestus.

METAR: MHCA 231600Z 00000KT 9999 SCT026TCU 28/23 Q1015

Hora: 10:47 (16:47 UTC)


TAF: manca

Observacions i pronòstics meteorològics de més de 4000 aeroports (METAR i TAF).

Les estacions disponibles són els punts grocs i vermells al mapa.

Posi el ratolí al punt desitjat per veure el nom de l'estació.

Feu clic per veure les observacions i els pronòstics meteorològics.

Per canviar el mapa: feu clic els botons verds amb una creu de color negre per apropar; al botó verd amb un guió per allunyar la imatge; o en les fletxes verdes per a mapes adjacents.


METAR-TAF: